Time;durP1;ratioP1;P1;durP2;ratioP2;P2;SDS_P1;SDS_P2;PMS_P1;PMS_P2;Temp;Humidity;BMP_temperature;BMP_pressure;BME280_temperature;BME280_humidity;BME280_pressure;Samples;Min_cycle;Max_cycle;Signal;HPM_P1;HPM_P2
2022/03/26 00:02:01;;;;;;;26.13;19.55;;;;;;;;;;5053091;28;20486;-77
2022/03/26 00:04:29;;;;;;;31.23;21.30;;;;;;;;;;5045881;28;20041;-76
2022/03/26 00:06:56;;;;;;;26.80;19.65;;;;;;;;;;5043477;28;20051;-78
2022/03/26 00:09:23;;;;;;;27.88;20.88;;;;;;;;;;5013350;28;20067;-79
2022/03/26 00:11:51;;;;;;;24.17;19.55;;;;;;;;;;5037846;28;20045;-77
2022/03/26 00:14:18;;;;;;;25.05;19.15;;;;;;;;;;5051753;28;20079;-77
2022/03/26 00:16:46;;;;;;;34.30;23.10;;;;;;;;;;5035235;28;20095;-76
2022/03/26 00:19:14;;;;;;;28.88;21.15;;;;;;;;;;5055155;28;20043;-76
2022/03/26 00:21:42;;;;;;;28.92;21.58;;;;;;;;;;5046125;28;20349;-76
2022/03/26 00:24:10;;;;;;;24.30;19.05;;;;;;;;;;5054410;28;20041;-77
2022/03/26 00:26:37;;;;;;;25.35;19.42;;;;;;;;;;5054444;28;20044;-80
2022/03/26 00:29:04;;;;;;;27.77;20.45;;;;;;;;;;5043155;28;20037;-77
2022/03/26 00:31:33;;;;;;;26.25;19.23;;;;;;;;;;5036865;28;20471;-79
2022/03/26 00:34:03;;;;;;;25.63;19.42;;;;;;;;;;5045742;28;20040;-78
2022/03/26 00:36:30;;;;;;;23.70;18.08;;;;;;;;;;5054350;28;20048;-77
2022/03/26 00:38:58;;;;;;;29.00;19.73;;;;;;;;;;5056815;28;20468;-80
2022/03/26 00:41:25;;;;;;;26.60;20.05;;;;;;;;;;5033388;28;20064;-78
2022/03/26 00:43:53;;;;;;;27.73;20.10;;;;;;;;;;5043037;28;20045;-77
2022/03/26 00:46:20;;;;;;;33.90;21.92;;;;;;;;;;5058595;28;20071;-78
2022/03/26 00:48:48;;;;;;;28.65;20.83;;;;;;;;;;5057673;28;20059;-79
2022/03/26 00:51:16;;;;;;;25.25;18.60;;;;;;;;;;5048085;28;20048;-77
2022/03/26 00:53:44;;;;;;;25.75;19.23;;;;;;;;;;5062195;28;20040;-77
2022/03/26 00:56:12;;;;;;;27.02;20.63;;;;;;;;;;5060842;28;20483;-77
2022/03/26 00:58:40;;;;;;;28.17;19.70;;;;;;;;;;5048487;28;20047;-77
2022/03/26 01:01:08;;;;;;;28.95;20.38;;;;;;;;;;5035838;28;20064;-77
2022/03/26 01:03:35;;;;;;;33.00;20.60;;;;;;;;;;5067027;28;20039;-78
2022/03/26 01:06:03;;;;;;;27.25;18.67;;;;;;;;;;5063392;28;20037;-78
2022/03/26 01:08:31;;;;;;;26.85;19.63;;;;;;;;;;5045735;28;20055;-78
2022/03/26 01:10:59;;;;;;;39.25;22.45;;;;;;;;;;5044100;28;20048;-77
2022/03/26 01:13:27;;;;;;;40.55;26.35;;;;;;;;;;5058049;28;20067;-77
2022/03/26 01:15:55;;;;;;;44.30;27.98;;;;;;;;;;5045156;28;20048;-77
2022/03/26 01:18:22;;;;;;;43.95;27.95;;;;;;;;;;5064013;28;20044;-77
2022/03/26 01:20:50;;;;;;;38.65;25.73;;;;;;;;;;5064866;28;20048;-79
2022/03/26 01:23:19;;;;;;;33.10;24.85;;;;;;;;;;5048031;28;20055;-77
2022/03/26 01:25:47;;;;;;;37.97;25.48;;;;;;;;;;5047277;28;20395;-79
2022/03/26 01:28:15;;;;;;;33.92;23.25;;;;;;;;;;5061787;28;20443;-79
2022/03/26 01:30:42;;;;;;;29.80;21.55;;;;;;;;;;5063936;28;20378;-78
2022/03/26 01:33:10;;;;;;;30.23;21.88;;;;;;;;;;5064171;28;20048;-77
2022/03/26 01:35:37;;;;;;;31.23;22.15;;;;;;;;;;5061633;28;20040;-79
2022/03/26 01:38:06;;;;;;;35.25;23.00;;;;;;;;;;5065972;28;20120;-77
2022/03/26 01:40:34;;;;;;;29.48;20.48;;;;;;;;;;5062133;28;20066;-79
2022/03/26 01:43:02;;;;;;;31.05;21.10;;;;;;;;;;5046204;28;20037;-79
2022/03/26 01:45:29;;;;;;;28.60;19.88;;;;;;;;;;5066216;28;21040;-77
2022/03/26 01:47:57;;;;;;;27.60;18.83;;;;;;;;;;5049208;28;20041;-77
2022/03/26 01:50:25;;;;;;;27.40;19.08;;;;;;;;;;5031685;28;20088;-77
2022/03/26 01:52:53;;;;;;;29.15;17.88;;;;;;;;;;5067778;28;20059;-77
2022/03/26 01:55:22;;;;;;;26.10;18.45;;;;;;;;;;5040576;28;20095;-77
2022/03/26 01:57:49;;;;;;;30.05;19.73;;;;;;;;;;5047970;28;20036;-78
2022/03/26 02:00:17;;;;;;;25.90;18.02;;;;;;;;;;5066556;28;20043;-79
2022/03/26 02:02:45;;;;;;;30.10;19.98;;;;;;;;;;5048773;28;20433;-79
2022/03/26 02:05:16;;;;;;;28.08;18.77;;;;;;;;;;5066443;28;20636;-77
2022/03/26 02:07:44;;;;;;;25.10;17.63;;;;;;;;;;5068228;28;20059;-77
2022/03/26 02:10:13;;;;;;;26.35;17.90;;;;;;;;;;5050182;28;20399;-77
2022/03/26 02:12:41;;;;;;;27.63;18.42;;;;;;;;;;5068733;28;20032;-77
2022/03/26 02:15:09;;;;;;;29.70;19.52;;;;;;;;;;5066610;28;20047;-77
2022/03/26 02:17:37;;;;;;;29.75;17.58;;;;;;;;;;5065009;28;20036;-77
2022/03/26 02:20:09;;;;;;;27.00;19.13;;;;;;;;;;5068796;28;20506;-77
2022/03/26 02:22:37;;;;;;;27.38;18.48;;;;;;;;;;5048147;28;20081;-77
2022/03/26 02:25:05;;;;;;;27.73;18.88;;;;;;;;;;5046092;28;20516;-77
2022/03/26 02:27:33;;;;;;;26.25;17.80;;;;;;;;;;5067218;28;20416;-77
2022/03/26 02:30:01;;;;;;;26.52;18.33;;;;;;;;;;5067584;28;20578;-77
2022/03/26 02:32:29;;;;;;;24.33;16.35;;;;;;;;;;5047387;28;20500;-79
2022/03/26 02:34:57;;;;;;;27.27;17.63;;;;;;;;;;5042609;28;20045;-78
2022/03/26 02:37:29;;;;;;;25.55;18.05;;;;;;;;;;5046568;28;20037;-78
2022/03/26 02:39:56;;;;;;;27.65;19.30;;;;;;;;;;5067443;28;20474;-75
2022/03/26 02:42:23;;;;;;;29.90;20.10;;;;;;;;;;5066793;28;20071;-75
2022/03/26 02:44:51;;;;;;;31.08;21.00;;;;;;;;;;5045869;28;20051;-75
2022/03/26 02:47:19;;;;;;;31.38;20.05;;;;;;;;;;5061497;28;20048;-75
2022/03/26 02:49:46;;;;;;;33.55;20.85;;;;;;;;;;5062743;28;20479;-75
2022/03/26 02:52:13;;;;;;;32.00;20.13;;;;;;;;;;5061944;28;20371;-76
2022/03/26 02:54:42;;;;;;;30.38;20.80;;;;;;;;;;5051141;28;20485;-76
2022/03/26 02:57:09;;;;;;;31.85;20.75;;;;;;;;;;5068173;28;20369;-75
2022/03/26 02:59:37;;;;;;;36.55;21.27;;;;;;;;;;5048160;28;20124;-75
2022/03/26 03:02:09;;;;;;;38.08;23.85;;;;;;;;;;5045903;28;20072;-76
2022/03/26 03:04:38;;;;;;;32.83;20.95;;;;;;;;;;5066857;28;20049;-75
2022/03/26 03:07:06;;;;;;;36.20;22.63;;;;;;;;;;5049435;28;20048;-75
2022/03/26 03:09:33;;;;;;;36.10;22.45;;;;;;;;;;5066643;28;20144;-76
2022/03/26 03:12:01;;;;;;;33.88;22.23;;;;;;;;;;5037811;28;20036;-75
2022/03/26 03:14:29;;;;;;;36.65;21.70;;;;;;;;;;5046306;28;20118;-75
2022/03/26 03:16:56;;;;;;;33.42;21.63;;;;;;;;;;5061463;28;20041;-75
2022/03/26 03:19:23;;;;;;;34.97;21.73;;;;;;;;;;5066460;28;20049;-75
2022/03/26 03:21:51;;;;;;;32.50;21.85;;;;;;;;;;5046154;28;20587;-76
2022/03/26 03:24:18;;;;;;;34.30;22.17;;;;;;;;;;5031215;28;20575;-76
2022/03/26 03:26:45;;;;;;;38.28;21.95;;;;;;;;;;5066447;28;20047;-77
2022/03/26 03:29:13;;;;;;;34.22;20.70;;;;;;;;;;5066151;28;20040;-76
2022/03/26 03:31:44;;;;;;;34.20;21.77;;;;;;;;;;5058077;28;20054;-77
2022/03/26 03:34:12;;;;;;;34.42;22.05;;;;;;;;;;5047475;28;20295;-76
2022/03/26 03:36:40;;;;;;;33.72;22.20;;;;;;;;;;5057423;28;20144;-79
2022/03/26 03:39:07;;;;;;;33.83;20.08;;;;;;;;;;5066705;28;20040;-76
2022/03/26 03:41:35;;;;;;;36.28;21.42;;;;;;;;;;5064179;28;20515;-76
2022/03/26 03:44:02;;;;;;;32.13;21.00;;;;;;;;;;5067735;28;20113;-77
2022/03/26 03:46:31;;;;;;;39.03;24.13;;;;;;;;;;5043461;28;20455;-76
2022/03/26 03:48:58;;;;;;;36.90;21.83;;;;;;;;;;5048463;28;20106;-76
2022/03/26 03:51:26;;;;;;;34.22;21.02;;;;;;;;;;5064918;28;20504;-76
2022/03/26 03:53:54;;;;;;;34.63;21.23;;;;;;;;;;5043463;28;20048;-77
2022/03/26 03:56:21;;;;;;;31.52;20.17;;;;;;;;;;5064211;28;20119;-77
2022/03/26 03:58:48;;;;;;;31.10;20.50;;;;;;;;;;5052192;28;20129;-76
2022/03/26 04:01:16;;;;;;;31.23;19.65;;;;;;;;;;5051340;28;20131;-76
2022/03/26 04:03:44;;;;;;;30.80;21.27;;;;;;;;;;5056653;28;20045;-78
2022/03/26 04:06:11;;;;;;;32.17;19.48;;;;;;;;;;5060758;28;20403;-76
2022/03/26 04:08:38;;;;;;;30.83;19.63;;;;;;;;;;5065096;28;20448;-76
2022/03/26 04:11:06;;;;;;;28.88;19.90;;;;;;;;;;5045214;28;20064;-76
2022/03/26 04:13:33;;;;;;;34.67;21.77;;;;;;;;;;5064566;28;20051;-77
2022/03/26 04:16:01;;;;;;;32.10;19.85;;;;;;;;;;5051497;28;20452;-76
2022/03/26 04:18:29;;;;;;;41.20;25.98;;;;;;;;;;5047035;28;20041;-79
2022/03/26 04:20:56;;;;;;;33.05;23.90;;;;;;;;;;5046931;28;20049;-76
2022/03/26 04:23:24;;;;;;;48.47;34.38;;;;;;;;;;5065402;22;20493;-74
2022/03/26 04:25:51;;;;;;;36.85;26.25;;;;;;;;;;5081269;28;20045;-77
2022/03/26 04:28:19;;;;;;;39.22;24.85;;;;;;;;;;5079057;28;20052;-78
2022/03/26 04:30:46;;;;;;;35.15;23.83;;;;;;;;;;5084345;28;20054;-78
2022/03/26 04:33:14;;;;;;;34.15;23.52;;;;;;;;;;5033564;28;20049;-77
2022/03/26 04:35:41;;;;;;;32.47;21.63;;;;;;;;;;5044433;28;20344;-77
2022/03/26 04:38:09;;;;;;;30.83;20.92;;;;;;;;;;5073034;28;20044;-76
2022/03/26 04:40:36;;;;;;;31.83;20.52;;;;;;;;;;5076418;28;20500;-77
2022/03/26 04:43:03;;;;;;;33.60;21.27;;;;;;;;;;5087757;28;20067;-77
2022/03/26 04:45:32;;;;;;;32.53;21.48;;;;;;;;;;5078825;28;20075;-77
2022/03/26 04:48:00;;;;;;;31.73;21.55;;;;;;;;;;5068965;28;20060;-77
2022/03/26 04:50:27;;;;;;;40.47;24.33;;;;;;;;;;5067267;28;20537;-76
2022/03/26 04:52:54;;;;;;;31.00;20.58;;;;;;;;;;5082837;28;20052;-76
2022/03/26 04:55:22;;;;;;;27.52;20.10;;;;;;;;;;5064282;28;20383;-77
2022/03/26 04:57:51;;;;;;;28.55;19.50;;;;;;;;;;5072265;28;20149;-77
2022/03/26 05:00:19;;;;;;;32.40;22.42;;;;;;;;;;5072187;28;20032;-76
2022/03/26 05:02:47;;;;;;;29.45;19.60;;;;;;;;;;5085597;28;20749;-77
2022/03/26 05:05:14;;;;;;;30.20;19.23;;;;;;;;;;5084983;28;20051;-77
2022/03/26 05:07:45;;;;;;;31.38;20.90;;;;;;;;;;5084268;28;20070;-77
2022/03/26 05:10:14;;;;;;;26.73;19.48;;;;;;;;;;5061769;28;20071;-77
2022/03/26 05:12:42;;;;;;;31.13;21.05;;;;;;;;;;5064287;28;20058;-76
2022/03/26 05:15:10;;;;;;;29.38;18.90;;;;;;;;;;5076261;28;20029;-77
2022/03/26 05:17:38;;;;;;;29.80;20.10;;;;;;;;;;5059997;28;20558;-76
2022/03/26 05:20:06;;;;;;;27.73;19.27;;;;;;;;;;5076733;28;20032;-78
2022/03/26 05:22:34;;;;;;;28.10;18.88;;;;;;;;;;5068505;28;20063;-76
2022/03/26 05:25:01;;;;;;;30.25;20.27;;;;;;;;;;5072140;28;20036;-76
2022/03/26 05:27:28;;;;;;;33.33;21.65;;;;;;;;;;5082355;28;20780;-78
2022/03/26 05:29:56;;;;;;;31.45;20.70;;;;;;;;;;5080742;28;20499;-78
2022/03/26 05:32:23;;;;;;;26.73;18.42;;;;;;;;;;5067561;28;20131;-77
2022/03/26 05:34:51;;;;;;;29.70;19.45;;;;;;;;;;5047097;28;20067;-77
2022/03/26 05:37:19;;;;;;;33.55;20.40;;;;;;;;;;5060625;28;20090;-77
2022/03/26 05:39:47;;;;;;;25.48;17.42;;;;;;;;;;5073186;28;20047;-77
2022/03/26 05:42:15;;;;;;;24.38;17.70;;;;;;;;;;5069542;28;20059;-77
2022/03/26 05:44:42;;;;;;;27.40;18.63;;;;;;;;;;5064861;28;20055;-77
2022/03/26 05:47:10;;;;;;;31.52;20.73;;;;;;;;;;5072208;28;20044;-77
2022/03/26 05:49:38;;;;;;;31.33;20.90;;;;;;;;;;5084193;28;20135;-78
2022/03/26 05:52:05;;;;;;;29.27;19.98;;;;;;;;;;5062940;28;20116;-78
2022/03/26 05:54:32;;;;;;;34.72;21.33;;;;;;;;;;5062253;28;20051;-78
2022/03/26 05:57:00;;;;;;;33.38;21.35;;;;;;;;;;5070532;28;20086;-77
2022/03/26 05:59:28;;;;;;;30.98;20.65;;;;;;;;;;5062101;28;20040;-77
2022/03/26 06:01:55;;;;;;;25.55;18.52;;;;;;;;;;5062706;28;20059;-77
2022/03/26 06:04:23;;;;;;;27.67;17.65;;;;;;;;;;5062911;28;20040;-77
2022/03/26 06:06:51;;;;;;;30.85;20.10;;;;;;;;;;5064386;28;20051;-77
2022/03/26 06:09:18;;;;;;;35.13;22.30;;;;;;;;;;5050732;28;20063;-77
2022/03/26 06:11:45;;;;;;;28.50;21.15;;;;;;;;;;5068645;28;20416;-77
2022/03/26 06:14:13;;;;;;;33.75;22.77;;;;;;;;;;5052767;28;20044;-77
2022/03/26 06:16:40;;;;;;;33.33;21.73;;;;;;;;;;5069018;28;20682;-78
2022/03/26 06:19:08;;;;;;;32.30;23.80;;;;;;;;;;5052062;28;20442;-78
2022/03/26 06:21:35;;;;;;;36.67;24.75;;;;;;;;;;5060416;28;20043;-78
2022/03/26 06:24:02;;;;;;;39.85;25.67;;;;;;;;;;5077073;28;20044;-77
2022/03/26 06:26:30;;;;;;;35.13;23.88;;;;;;;;;;5081419;28;20077;-78
2022/03/26 06:28:58;;;;;;;32.50;22.55;;;;;;;;;;5083897;28;20044;-77
2022/03/26 06:31:25;;;;;;;38.25;25.15;;;;;;;;;;5068664;28;20041;-77
2022/03/26 06:33:53;;;;;;;35.53;23.98;;;;;;;;;;5074151;28;20492;-77
2022/03/26 06:36:20;;;;;;;32.72;24.08;;;;;;;;;;5069407;28;20117;-77
2022/03/26 06:38:47;;;;;;;36.38;23.35;;;;;;;;;;5085621;28;20051;-77
2022/03/26 06:41:18;;;;;;;28.75;20.23;;;;;;;;;;5052550;28;20048;-77
2022/03/26 06:43:46;;;;;;;32.42;21.48;;;;;;;;;;5087168;28;20143;-76
2022/03/26 06:46:13;;;;;;;34.25;22.77;;;;;;;;;;5089158;28;20044;-77
2022/03/26 06:48:40;;;;;;;36.55;22.52;;;;;;;;;;5066556;28;20523;-76
2022/03/26 06:51:08;;;;;;;29.92;20.88;;;;;;;;;;5070652;28;20125;-77
2022/03/26 06:53:36;;;;;;;31.98;22.70;;;;;;;;;;5077492;28;20047;-76
2022/03/26 06:56:07;;;;;;;26.85;20.30;;;;;;;;;;5079619;28;20052;-76
2022/03/26 06:58:35;;;;;;;27.90;21.23;;;;;;;;;;5065850;28;20040;-77
2022/03/26 07:01:03;;;;;;;33.60;23.42;;;;;;;;;;5079406;28;20040;-77
2022/03/26 07:03:31;;;;;;;33.22;23.17;;;;;;;;;;5079029;28;20528;-77
2022/03/26 07:05:59;;;;;;;37.83;23.50;;;;;;;;;;5077731;28;20040;-77
2022/03/26 07:08:28;;;;;;;32.10;22.23;;;;;;;;;;5064436;28;20484;-77
2022/03/26 07:10:56;;;;;;;36.88;22.27;;;;;;;;;;5068673;28;20403;-77
2022/03/26 07:13:23;;;;;;;31.48;22.35;;;;;;;;;;5074079;28;20053;-77
2022/03/26 07:15:51;;;;;;;28.85;22.23;;;;;;;;;;5078625;28;20145;-77
2022/03/26 07:18:18;;;;;;;30.52;21.65;;;;;;;;;;5071768;28;20047;-77
2022/03/26 07:20:46;;;;;;;30.60;23.38;;;;;;;;;;5079445;28;20396;-77
2022/03/26 07:23:13;;;;;;;30.80;21.42;;;;;;;;;;5065874;28;20385;-77
2022/03/26 07:25:41;;;;;;;31.35;22.60;;;;;;;;;;5081443;28;20419;-77
2022/03/26 07:28:08;;;;;;;29.83;21.17;;;;;;;;;;5061706;28;20048;-77
2022/03/26 07:30:36;;;;;;;31.30;22.75;;;;;;;;;;5035271;28;20052;-77
2022/03/26 07:33:04;;;;;;;29.10;21.52;;;;;;;;;;5036529;28;20670;-76
2022/03/26 07:35:33;;;;;;;34.38;23.90;;;;;;;;;;5057745;28;20055;-77
2022/03/26 07:38:00;;;;;;;31.30;21.17;;;;;;;;;;5081337;28;20040;-77
2022/03/26 07:40:28;;;;;;;29.83;21.92;;;;;;;;;;5080867;28;20071;-77
2022/03/26 07:42:56;;;;;;;26.77;18.85;;;;;;;;;;5073569;28;20050;-77
2022/03/26 07:45:24;;;;;;;33.83;22.58;;;;;;;;;;5078238;28;20106;-77
2022/03/26 07:47:52;;;;;;;30.85;20.65;;;;;;;;;;5084054;28;20089;-77
2022/03/26 07:50:22;;;;;;;26.92;21.63;;;;;;;;;;5075438;28;20043;-77
2022/03/26 07:52:50;;;;;;;33.13;21.98;;;;;;;;;;5073592;28;20103;-77
2022/03/26 07:55:18;;;;;;;30.90;22.33;;;;;;;;;;5062410;28;20388;-77
2022/03/26 07:57:46;;;;;;;28.38;21.67;;;;;;;;;;5062116;28;20500;-77
2022/03/26 08:00:13;;;;;;;30.05;20.08;;;;;;;;;;5066104;28;20055;-77
2022/03/26 08:02:41;;;;;;;25.73;19.33;;;;;;;;;;5073335;28;20036;-77
2022/03/26 08:05:08;;;;;;;27.13;18.48;;;;;;;;;;5056192;28;20493;-78
2022/03/26 08:07:36;;;;;;;24.75;19.20;;;;;;;;;;5074408;28;20032;-77
2022/03/26 08:10:03;;;;;;;28.50;21.15;;;;;;;;;;5079648;28;20435;-78
2022/03/26 08:12:31;;;;;;;26.67;20.25;;;;;;;;;;5068819;28;20043;-78
2022/03/26 08:14:59;;;;;;;32.38;21.10;;;;;;;;;;5087312;28;20040;-77
2022/03/26 08:17:28;;;;;;;28.02;19.65;;;;;;;;;;5068759;28;20139;-78
2022/03/26 08:19:56;;;;;;;26.42;20.08;;;;;;;;;;5087742;28;20551;-77
2022/03/26 08:22:23;;;;;;;24.45;19.45;;;;;;;;;;5058424;28;20581;-78
2022/03/26 08:24:51;;;;;;;30.75;19.20;;;;;;;;;;5085770;28;20047;-78
2022/03/26 08:27:23;;;;;;;28.70;19.70;;;;;;;;;;5063144;28;20040;-78
2022/03/26 08:29:56;;;;;;;22.25;17.25;;;;;;;;;;5051369;28;20052;-78
2022/03/26 08:32:25;;;;;;;32.15;17.77;;;;;;;;;;5056397;28;20044;-78
2022/03/26 08:34:53;;;;;;;28.00;18.48;;;;;;;;;;5069220;28;20506;-79
2022/03/26 08:37:23;;;;;;;24.25;18.50;;;;;;;;;;5084787;28;20159;-77
2022/03/26 08:39:50;;;;;;;28.90;18.10;;;;;;;;;;5070707;28;20385;-77
2022/03/26 08:42:18;;;;;;;28.27;18.38;;;;;;;;;;5081423;28;20040;-77
2022/03/26 08:44:48;;;;;;;25.67;17.83;;;;;;;;;;5077569;28;20056;-77
2022/03/26 08:47:17;;;;;;;22.40;17.40;;;;;;;;;;5052811;28;20045;-77
2022/03/26 08:49:45;;;;;;;20.67;16.45;;;;;;;;;;5063938;28;20044;-77
2022/03/26 08:52:14;;;;;;;21.58;15.52;;;;;;;;;;5053285;28;20300;-78
2022/03/26 08:54:46;;;;;;;24.25;16.10;;;;;;;;;;5066768;28;20056;-77
2022/03/26 08:57:14;;;;;;;26.88;16.65;;;;;;;;;;5068620;28;20495;-77
2022/03/26 08:59:41;;;;;;;24.92;16.88;;;;;;;;;;5076686;28;20036;-77
2022/03/26 09:02:09;;;;;;;25.23;17.83;;;;;;;;;;5081243;28;20044;-77
2022/03/26 09:04:37;;;;;;;23.92;16.60;;;;;;;;;;5082065;28;20044;-78
2022/03/26 09:07:05;;;;;;;24.20;16.23;;;;;;;;;;5097975;28;20070;-78
2022/03/26 09:09:33;;;;;;;37.22;16.50;;;;;;;;;;5083354;28;20074;-77
2022/03/26 09:12:00;;;;;;;28.70;17.10;;;;;;;;;;5101148;28;20044;-78
2022/03/26 09:14:28;;;;;;;26.08;16.48;;;;;;;;;;5080735;28;20063;-77
2022/03/26 09:16:55;;;;;;;22.10;15.50;;;;;;;;;;5067425;28;20131;-78
2022/03/26 09:19:23;;;;;;;34.60;16.33;;;;;;;;;;5050438;28;20481;-76
2022/03/26 09:21:51;;;;;;;20.92;16.67;;;;;;;;;;5080364;28;20068;-77
2022/03/26 09:24:18;;;;;;;18.55;15.20;;;;;;;;;;5079931;28;20047;-77
2022/03/26 09:26:46;;;;;;;19.25;14.70;;;;;;;;;;5095130;28;20552;-76
2022/03/26 09:29:13;;;;;;;27.40;15.23;;;;;;;;;;5082088;28;20547;-76
2022/03/26 09:31:40;;;;;;;18.20;14.88;;;;;;;;;;5080407;28;20044;-77
2022/03/26 09:34:08;;;;;;;19.33;14.60;;;;;;;;;;5067520;28;20123;-77
2022/03/26 09:36:36;;;;;;;18.05;14.88;;;;;;;;;;5084089;28;20036;-76
2022/03/26 09:39:04;;;;;;;20.70;14.93;;;;;;;;;;5086865;28;20507;-76
2022/03/26 09:41:34;;;;;;;20.45;15.27;;;;;;;;;;5047785;28;20040;-78
2022/03/26 09:44:03;;;;;;;23.30;18.40;;;;;;;;;;5055189;28;20418;-77
2022/03/26 09:46:32;;;;;;;21.55;14.32;;;;;;;;;;5045586;28;20075;-78
2022/03/26 09:49:00;;;;;;;18.83;14.13;;;;;;;;;;5054514;28;20067;-77
2022/03/26 09:51:28;;;;;;;22.10;14.65;;;;;;;;;;5048511;28;20051;-78
2022/03/26 09:53:56;;;;;;;20.25;14.23;;;;;;;;;;5059249;28;20052;-78
2022/03/26 09:56:31;;;;;;;20.15;14.38;;;;;;;;;;5086378;28;20135;-77
2022/03/26 09:58:58;;;;;;;18.00;15.50;;;;;;;;;;5072702;28;20040;-77
2022/03/26 10:01:29;;;;;;;23.48;16.00;;;;;;;;;;5088214;28;20515;-77
2022/03/26 10:04:09;;;;;;;22.38;16.17;;;;;;;;;;5062963;28;20086;-77
2022/03/26 10:06:38;;;;;;;23.17;16.30;;;;;;;;;;5063733;28;20064;-78
2022/03/26 10:09:05;;;;;;;24.92;16.88;;;;;;;;;;5079129;28;20083;-78
2022/03/26 10:11:33;;;;;;;23.63;16.13;;;;;;;;;;5064101;28;20131;-77
2022/03/26 10:14:01;;;;;;;25.70;17.05;;;;;;;;;;5087243;28;20044;-77
2022/03/26 10:16:28;;;;;;;21.70;17.05;;;;;;;;;;5081618;28;20044;-76
2022/03/26 10:18:59;;;;;;;26.23;17.58;;;;;;;;;;5083166;28;20037;-76
2022/03/26 10:21:27;;;;;;;28.73;18.30;;;;;;;;;;5055941;28;20068;-77
2022/03/26 10:23:55;;;;;;;21.30;17.45;;;;;;;;;;5072986;28;20040;-77
2022/03/26 10:26:23;;;;;;;24.83;17.73;;;;;;;;;;5051255;28;20541;-78
2022/03/26 10:28:51;;;;;;;27.90;18.33;;;;;;;;;;5069177;28;20048;-77
2022/03/26 10:34:09;;;;;;;25.60;19.05;;;;;;;;;;5063304;28;20071;-77
2022/03/26 10:36:38;;;;;;;26.05;20.25;;;;;;;;;;5077296;28;20048;-78
2022/03/26 10:39:06;;;;;;;26.90;19.20;;;;;;;;;;5069896;28;20044;-77
2022/03/26 10:41:34;;;;;;;26.48;19.95;;;;;;;;;;5065980;28;20039;-76
2022/03/26 10:44:09;;;;;;;27.33;19.73;;;;;;;;;;5071025;28;20044;-76
2022/03/26 10:46:42;;;;;;;29.60;19.92;;;;;;;;;;5070088;28;20098;-77
2022/03/26 10:49:11;;;;;;;26.65;19.50;;;;;;;;;;5067201;28;20135;-77
2022/03/26 10:51:40;;;;;;;28.20;19.42;;;;;;;;;;5073094;28;20044;-76
2022/03/26 10:54:12;;;;;;;26.67;19.13;;;;;;;;;;5066592;28;20044;-77
2022/03/26 10:56:40;;;;;;;27.30;19.00;;;;;;;;;;5059738;28;20515;-78
2022/03/26 10:59:08;;;;;;;27.58;19.27;;;;;;;;;;5074392;28;20040;-77
2022/03/26 11:01:36;;;;;;;26.08;20.10;;;;;;;;;;5082051;28;20116;-78
2022/03/26 11:04:03;;;;;;;34.50;20.38;;;;;;;;;;5087636;28;20051;-77
2022/03/26 11:06:33;;;;;;;28.20;19.08;;;;;;;;;;5088089;28;20135;-77
2022/03/26 11:09:01;;;;;;;26.83;18.88;;;;;;;;;;5069253;28;20056;-77
2022/03/26 11:11:29;;;;;;;29.58;19.65;;;;;;;;;;5063218;28;20039;-77
2022/03/26 11:13:59;;;;;;;26.38;20.25;;;;;;;;;;5078723;28;20131;-77
2022/03/26 11:16:46;;;;;;;29.27;19.65;;;;;;;;;;5077383;28;20121;-77
2022/03/26 11:19:22;;;;;;;25.83;20.80;;;;;;;;;;5054073;28;20033;-76
2022/03/26 11:21:56;;;;;;;28.63;20.17;;;;;;;;;;5079798;28;20066;-77
2022/03/26 11:24:31;;;;;;;26.77;20.17;;;;;;;;;;5075413;28;20032;-77
2022/03/26 11:27:07;;;;;;;27.23;21.05;;;;;;;;;;5084176;28;20044;-77
2022/03/26 11:29:35;;;;;;;28.75;21.67;;;;;;;;;;5076271;28;20442;-78
2022/03/26 11:32:21;;;;;;;26.88;20.40;;;;;;;;;;5082166;28;20051;-77
2022/03/26 11:35:02;;;;;;;28.20;20.38;;;;;;;;;;5051567;28;20075;-77
2022/03/26 11:37:30;;;;;;;29.80;20.40;;;;;;;;;;5086470;28;20040;-77
2022/03/26 11:39:58;;;;;;;26.67;19.85;;;;;;;;;;5068728;28;20360;-76
2022/03/26 11:42:31;;;;;;;26.38;19.80;;;;;;;;;;5080756;28;20040;-77
2022/03/26 11:51:04;;;;;;;26.55;19.20;;;;;;;;;;5074789;28;20135;-76
2022/03/26 11:53:34;;;;;;;22.80;18.60;;;;;;;;;;5081250;28;20150;-76
2022/03/26 11:56:05;;;;;;;28.15;19.00;;;;;;;;;;5063031;28;20138;-77
2022/03/26 11:58:33;;;;;;;26.98;19.58;;;;;;;;;;5077109;28;20575;-77
2022/03/26 12:01:02;;;;;;;26.42;19.02;;;;;;;;;;5074999;28;20130;-77
2022/03/26 12:03:30;;;;;;;24.58;19.23;;;;;;;;;;5082027;28;20047;-77
2022/03/26 12:08:55;;;;;;;25.20;18.48;;;;;;;;;;5082285;28;20103;-78
2022/03/26 12:11:27;;;;;;;22.70;18.60;;;;;;;;;;5072776;28;20052;-79
2022/03/26 12:14:00;;;;;;;22.58;18.02;;;;;;;;;;5067832;28;20408;-77
2022/03/26 12:16:57;;;;;;;26.35;20.15;;;;;;;;;;5059226;28;21038;-78
2022/03/26 12:19:39;;;;;;;26.77;18.98;;;;;;;;;;5046411;28;20072;-78
2022/03/26 12:22:26;;;;;;;24.33;18.90;;;;;;;;;;5065268;28;20039;-76
2022/03/26 12:24:55;;;;;;;25.73;18.95;;;;;;;;;;5066522;28;20381;-77
2022/03/26 12:27:23;;;;;;;21.63;17.27;;;;;;;;;;5081347;28;20183;-78
2022/03/26 12:29:54;;;;;;;27.00;18.45;;;;;;;;;;5066833;28;20356;-78
2022/03/26 12:32:29;;;;;;;24.95;19.08;;;;;;;;;;5071498;28;20506;-78
2022/03/26 12:35:05;;;;;;;26.67;18.70;;;;;;;;;;5074730;28;20036;-76
2022/03/26 12:37:36;;;;;;;27.08;19.98;;;;;;;;;;5054653;28;20123;-76
2022/03/26 12:40:12;;;;;;;24.97;18.63;;;;;;;;;;5049738;28;20595;-78
2022/03/26 12:42:40;;;;;;;25.98;19.45;;;;;;;;;;5079344;28;20097;-78
2022/03/26 12:45:14;;;;;;;24.52;18.38;;;;;;;;;;5056979;28;20041;-76
2022/03/26 12:47:48;;;;;;;24.63;18.42;;;;;;;;;;5069759;28;20051;-77
2022/03/26 12:50:22;;;;;;;24.10;17.67;;;;;;;;;;5059367;28;20051;-78
2022/03/26 12:52:50;;;;;;;26.98;18.17;;;;;;;;;;5076035;28;20585;-78
2022/03/26 12:55:18;;;;;;;23.00;16.13;;;;;;;;;;5081664;28;20075;-78
2022/03/26 13:00:33;;;;;;;24.92;17.30;;;;;;;;;;5064382;28;20055;-78
2022/03/26 13:03:09;;;;;;;25.42;17.90;;;;;;;;;;5079660;28;20484;-78
2022/03/26 13:05:37;;;;;;;22.27;17.50;;;;;;;;;;5062962;28;20151;-78
2022/03/26 13:08:10;;;;;;;22.95;16.60;;;;;;;;;;5055448;28;20048;-78
2022/03/26 13:10:41;;;;;;;20.30;15.32;;;;;;;;;;5058882;28;20052;-77
2022/03/26 13:13:08;;;;;;;23.42;16.73;;;;;;;;;;5066974;28;20032;-77
2022/03/26 13:15:36;;;;;;;24.20;18.52;;;;;;;;;;5063302;28;20119;-77
2022/03/26 13:18:05;;;;;;;24.35;16.73;;;;;;;;;;5080353;28;20477;-77
2022/03/26 13:20:35;;;;;;;23.58;16.83;;;;;;;;;;5074389;28;20059;-77
2022/03/26 13:23:03;;;;;;;20.13;15.45;;;;;;;;;;5068519;28;20036;-78
2022/03/26 13:25:38;;;;;;;21.77;16.38;;;;;;;;;;5067920;28;20212;-77
2022/03/26 13:28:23;;;;;;;21.05;15.57;;;;;;;;;;5076944;28;20089;-78
2022/03/26 13:30:51;;;;;;;21.05;16.08;;;;;;;;;;5066411;28;20062;-77
2022/03/26 13:33:20;;;;;;;24.10;15.50;;;;;;;;;;5069162;28;20032;-78
2022/03/26 13:35:48;;;;;;;24.23;15.75;;;;;;;;;;5077495;28;20044;-78
2022/03/26 13:38:16;;;;;;;19.63;16.60;;;;;;;;;;5067986;28;20583;-78
2022/03/26 13:40:43;;;;;;;23.70;16.25;;;;;;;;;;5084260;28;20555;-79
2022/03/26 13:43:11;;;;;;;22.42;15.18;;;;;;;;;;5059191;28;20051;-79
2022/03/26 13:45:41;;;;;;;20.48;15.90;;;;;;;;;;5078352;28;20044;-77
2022/03/26 13:48:12;;;;;;;23.40;15.57;;;;;;;;;;5084852;28;20072;-79
2022/03/26 13:50:40;;;;;;;18.58;14.07;;;;;;;;;;5063242;28;20123;-78
2022/03/26 13:53:28;;;;;;;17.60;14.38;;;;;;;;;;5075475;28;20391;-79
2022/03/26 13:55:55;;;;;;;24.83;15.75;;;;;;;;;;5080631;28;20040;-78
2022/03/26 13:58:23;;;;;;;25.55;16.00;;;;;;;;;;5084091;28;20040;-78
2022/03/26 14:00:54;;;;;;;26.52;16.23;;;;;;;;;;5079825;28;20143;-78
2022/03/26 14:03:24;;;;;;;19.77;15.90;;;;;;;;;;5079375;28;20079;-78
2022/03/26 14:05:52;;;;;;;21.27;15.30;;;;;;;;;;5073892;28;20491;-78
2022/03/26 14:08:20;;;;;;;21.60;15.68;;;;;;;;;;5063219;28;20576;-78
2022/03/26 14:10:47;;;;;;;17.92;14.75;;;;;;;;;;5081394;28;20105;-77
2022/03/26 14:13:16;;;;;;;19.45;15.20;;;;;;;;;;5077587;28;20037;-78
2022/03/26 14:15:44;;;;;;;23.17;16.15;;;;;;;;;;5074134;28;20576;-77
2022/03/26 14:18:12;;;;;;;24.02;15.48;;;;;;;;;;5067413;28;20118;-78
2022/03/26 14:20:39;;;;;;;25.23;15.38;;;;;;;;;;5075579;28;20505;-78
2022/03/26 14:23:07;;;;;;;21.63;15.60;;;;;;;;;;5069064;28;20118;-78
2022/03/26 14:25:36;;;;;;;18.70;14.05;;;;;;;;;;5075768;28;20106;-78
2022/03/26 14:28:05;;;;;;;23.20;15.25;;;;;;;;;;5056065;28;20037;-77
2022/03/26 14:30:32;;;;;;;21.33;14.70;;;;;;;;;;5060676;28;20056;-78
2022/03/26 14:33:03;;;;;;;22.13;14.57;;;;;;;;;;5053119;28;20056;-78
2022/03/26 14:35:31;;;;;;;22.60;14.30;;;;;;;;;;5060383;28;20066;-78
2022/03/26 14:37:59;;;;;;;17.55;14.48;;;;;;;;;;5059886;28;20926;-77
2022/03/26 14:40:27;;;;;;;24.20;16.65;;;;;;;;;;5049394;28;20055;-77